Time;durP1;ratioP1;P1;durP2;ratioP2;P2;SDS_P1;SDS_P2;PMS_P1;PMS_P2;Temp;Humidity;BMP_temperature;BMP_pressure;BME280_temperature;BME280_humidity;BME280_pressure;Samples;Min_cycle;Max_cycle;Signal;HPM_P1;HPM_P2
2020/12/09 00:01:15;;;;;;;94.55;26.17;;;2.10;1.00;;;;;;5072159;28;20224;-73
2020/12/09 00:03:42;;;;;;;98.97;28.73;;;2.10;1.00;;;;;;5072061;28;20224;-73
2020/12/09 00:06:09;;;;;;;97.07;27.38;;;2.00;1.00;;;;;;5071408;28;20243;-73
2020/12/09 00:08:35;;;;;;;96.32;27.42;;;2.00;1.00;;;;;;5071954;28;20201;-73
2020/12/09 00:11:02;;;;;;;95.53;26.55;;;2.00;1.00;;;;;;5071368;28;20212;-73
2020/12/09 00:13:29;;;;;;;90.75;23.85;;;1.90;1.00;;;;;;5070863;28;20316;-73
2020/12/09 00:15:55;;;;;;;98.05;27.17;;;1.90;1.00;;;;;;5071629;28;20982;-73
2020/12/09 00:18:22;;;;;;;95.10;25.80;;;1.90;1.00;;;;;;5070692;28;20300;-73
2020/12/09 00:20:48;;;;;;;92.72;25.27;;;1.90;1.00;;;;;;5071305;28;20221;-72
2020/12/09 00:23:14;;;;;;;92.78;24.58;;;1.90;1.00;;;;;;5071269;28;20478;-73
2020/12/09 00:25:41;;;;;;;94.20;25.33;;;1.90;1.00;;;;;;5071668;28;20297;-73
2020/12/09 00:28:07;;;;;;;95.60;24.88;;;1.90;1.00;;;;;;5071236;28;20295;-72
2020/12/09 00:30:34;;;;;;;94.25;25.80;;;1.90;1.00;;;;;;5071677;28;20205;-73
2020/12/09 00:33:00;;;;;;;92.03;26.23;;;1.90;1.00;;;;;;5071229;28;20259;-73
2020/12/09 00:35:27;;;;;;;91.78;24.65;;;1.90;1.00;;;;;;5071652;28;20291;-73
2020/12/09 00:37:53;;;;;;;93.65;26.65;;;1.80;1.00;;;;;;5070801;28;20223;-72
2020/12/09 00:40:20;;;;;;;93.13;25.63;;;1.80;1.00;;;;;;5071272;28;20227;-73
2020/12/09 00:42:46;;;;;;;97.80;27.15;;;1.80;1.00;;;;;;5070915;28;20228;-73
2020/12/09 00:45:13;;;;;;;97.00;27.27;;;1.80;1.00;;;;;;5071323;28;20209;-73
2020/12/09 00:47:41;;;;;;;95.22;25.80;;;1.80;1.00;;;;;;5071074;28;20217;-73
2020/12/09 00:52:52;;;;;;;93.75;24.20;;;1.80;1.00;;;;;;5070277;28;20738;-72
2020/12/09 00:55:18;;;;;;;98.57;27.55;;;1.80;1.00;;;;;;5071823;28;20193;-73
2020/12/09 00:57:45;;;;;;;96.10;24.85;;;1.80;1.00;;;;;;5071429;28;20667;-73
2020/12/09 01:00:11;;;;;;;93.20;24.38;;;1.80;1.00;;;;;;5071514;28;20221;-73
2020/12/09 01:02:38;;;;;;;91.60;24.73;;;1.80;1.00;;;;;;5070988;28;20232;-73
2020/12/09 01:05:08;;;;;;;102.50;27.25;;;1.80;1.00;;;;;;5070435;28;20280;-73
2020/12/09 01:07:34;;;;;;;92.20;25.10;;;1.80;1.00;;;;;;5070714;28;20193;-73
2020/12/09 01:10:01;;;;;;;98.45;26.85;;;1.80;1.00;;;;;;5071237;28;20201;-73
2020/12/09 01:12:27;;;;;;;96.93;25.60;;;1.90;1.00;;;;;;5071174;28;20207;-73
2020/12/09 01:14:54;;;;;;;94.18;24.55;;;1.90;1.00;;;;;;5071662;28;20217;-73
2020/12/09 01:17:20;;;;;;;95.38;25.65;;;1.80;1.00;;;;;;5071321;28;20209;-73
2020/12/09 01:19:46;;;;;;;93.68;26.38;;;1.90;1.00;;;;;;5070131;28;20229;-73
2020/12/09 01:22:15;;;;;;;96.97;25.70;;;1.80;1.00;;;;;;5070442;28;20205;-73
2020/12/09 01:24:41;;;;;;;94.53;25.05;;;1.90;1.00;;;;;;5070986;28;20304;-73
2020/12/09 01:27:08;;;;;;;96.95;27.45;;;1.80;1.00;;;;;;5071442;28;20216;-73
2020/12/09 01:29:34;;;;;;;94.82;25.02;;;1.80;1.00;;;;;;5071186;28;20209;-73
2020/12/09 01:32:01;;;;;;;94.78;25.23;;;1.80;1.00;;;;;;5071291;28;20561;-73
2020/12/09 01:34:29;;;;;;;92.80;25.17;;;1.80;1.00;;;;;;5073653;28;20773;-73
2020/12/09 01:36:58;;;;;;;95.53;27.63;;;1.80;1.00;;;;;;5074113;28;20588;-73
2020/12/09 01:39:26;;;;;;;93.72;25.42;;;1.90;1.00;;;;;;5070710;28;20699;-73
2020/12/09 01:41:52;;;;;;;94.63;25.73;;;1.90;1.00;;;;;;5070889;28;20232;-72
2020/12/09 01:44:19;;;;;;;89.07;23.73;;;1.90;1.00;;;;;;5071196;28;20347;-73
2020/12/09 01:46:48;;;;;;;95.05;25.00;;;1.90;1.00;;;;;;5070644;28;20584;-73
2020/12/09 01:49:15;;;;;;;102.78;27.95;;;1.80;1.00;;;;;;5070564;28;20248;-73
2020/12/09 01:51:42;;;;;;;96.05;26.63;;;1.80;1.00;;;;;;5070639;28;20259;-73
2020/12/09 01:54:09;;;;;;;102.43;28.02;;;1.90;1.00;;;;;;5092742;22;20231;-71
2020/12/09 01:56:36;;;;;;;97.50;27.08;;;1.80;1.00;;;;;;5070372;28;20262;-71
2020/12/09 01:59:02;;;;;;;98.95;26.27;;;1.80;1.00;;;;;;5070619;28;20204;-72
2020/12/09 02:01:31;;;;;;;96.93;27.55;;;1.80;1.00;;;;;;5072893;28;20302;-72
2020/12/09 02:03:58;;;;;;;93.75;26.13;;;1.80;1.00;;;;;;5074548;28;20232;-72
2020/12/09 02:06:24;;;;;;;98.53;27.83;;;1.90;1.00;;;;;;5074382;28;20303;-72
2020/12/09 02:08:50;;;;;;;97.35;26.00;;;1.90;1.00;;;;;;5073962;28;20209;-72
2020/12/09 02:11:17;;;;;;;91.63;26.13;;;1.90;1.00;;;;;;5074896;28;20201;-72
2020/12/09 02:13:45;;;;;;;95.72;26.17;;;1.90;1.00;;;;;;5074554;28;20620;-72
2020/12/09 02:16:13;;;;;;;99.65;26.75;;;1.90;1.00;;;;;;5074565;28;20571;-72
2020/12/09 02:18:40;;;;;;;97.10;26.08;;;1.90;1.00;;;;;;5074124;28;20238;-72
2020/12/09 02:21:07;;;;;;;96.38;24.58;;;1.90;1.00;;;;;;5074223;28;20225;-72
2020/12/09 02:23:34;;;;;;;96.22;25.30;;;1.90;1.00;;;;;;5074390;28;20226;-72
2020/12/09 02:26:00;;;;;;;96.63;24.27;;;1.90;1.00;;;;;;5074677;28;20685;-72
2020/12/09 02:28:27;;;;;;;95.40;26.15;;;1.90;1.00;;;;;;5070703;28;20216;-72
2020/12/09 02:30:53;;;;;;;96.65;25.77;;;1.80;1.00;;;;;;5074749;28;20207;-72
2020/12/09 02:33:19;;;;;;;103.28;29.27;;;1.80;1.00;;;;;;5074464;28;20251;-71
2020/12/09 02:35:46;;;;;;;98.32;28.65;;;1.80;1.00;;;;;;5074438;28;20205;-71
2020/12/09 02:38:12;;;;;;;102.60;29.65;;;1.80;1.00;;;;;;5074294;28;20262;-71
2020/12/09 02:40:40;;;;;;;102.15;27.70;;;1.90;1.00;;;;;;5074369;28;20307;-71
2020/12/09 02:43:06;;;;;;;100.43;28.42;;;1.90;1.00;;;;;;5074087;28;20258;-69
2020/12/09 02:45:32;;;;;;;99.70;27.77;;;1.90;1.00;;;;;;5074106;28;20235;-70
2020/12/09 02:47:59;;;;;;;95.60;26.25;;;1.90;1.00;;;;;;5074216;28;20235;-71
2020/12/09 02:50:25;;;;;;;105.93;29.55;;;1.90;1.00;;;;;;5074093;28;20205;-71
2020/12/09 02:52:51;;;;;;;97.95;26.48;;;1.90;1.00;;;;;;5074131;28;20205;-70
2020/12/09 02:55:19;;;;;;;103.80;28.13;;;2.00;1.00;;;;;;5073815;28;20237;-71
2020/12/09 02:57:47;;;;;;;96.40;26.13;;;2.00;1.00;;;;;;5073893;28;20241;-70
2020/12/09 03:00:14;;;;;;;93.43;24.80;;;2.00;1.00;;;;;;5074084;28;20228;-71
2020/12/09 03:02:41;;;;;;;95.93;26.13;;;2.00;1.00;;;;;;5073798;28;20432;-71
2020/12/09 03:05:08;;;;;;;101.85;29.75;;;2.10;1.00;;;;;;5073723;28;20233;-71
2020/12/09 03:07:34;;;;;;;97.75;27.20;;;2.00;1.00;;;;;;5073742;28;20740;-71
2020/12/09 03:10:01;;;;;;;97.05;26.40;;;2.10;1.00;;;;;;5073369;28;20514;-72
2020/12/09 03:12:27;;;;;;;99.85;26.38;;;2.10;1.00;;;;;;5072485;28;20250;-71
2020/12/09 03:14:54;;;;;;;102.95;28.33;;;2.10;1.00;;;;;;5073339;28;20774;-71
2020/12/09 03:17:21;;;;;;;101.30;27.05;;;2.10;1.00;;;;;;5073323;28;20213;-71
2020/12/09 03:19:47;;;;;;;98.57;27.27;;;2.10;1.00;;;;;;5072927;28;20303;-71
2020/12/09 03:22:13;;;;;;;100.47;28.35;;;2.00;1.00;;;;;;5073399;28;20211;-71
2020/12/09 03:24:40;;;;;;;94.20;27.20;;;2.00;1.00;;;;;;5073054;28;20235;-71
2020/12/09 03:27:06;;;;;;;94.38;25.88;;;2.00;1.00;;;;;;5073202;28;20215;-71
2020/12/09 03:29:32;;;;;;;96.20;25.48;;;2.00;1.00;;;;;;5073111;28;20586;-71
2020/12/09 03:31:59;;;;;;;102.32;27.30;;;1.90;1.00;;;;;;5073219;28;20214;-71
2020/12/09 03:34:26;;;;;;;101.72;29.45;;;1.90;1.00;;;;;;5073109;28;20598;-71
2020/12/09 03:36:52;;;;;;;101.65;27.55;;;1.80;1.00;;;;;;5072959;28;20209;-71
2020/12/09 03:39:18;;;;;;;103.43;29.52;;;1.80;1.00;;;;;;5072446;28;20205;-71
2020/12/09 03:41:45;;;;;;;95.63;26.63;;;1.80;1.00;;;;;;5073014;28;20225;-71
2020/12/09 03:44:11;;;;;;;95.35;25.30;;;1.80;1.00;;;;;;5072264;28;20224;-71
2020/12/09 03:46:37;;;;;;;101.03;28.20;;;1.70;1.00;;;;;;5072818;28;20311;-71
2020/12/09 03:49:06;;;;;;;94.32;25.55;;;1.70;1.00;;;;;;5072298;28;20227;-71
2020/12/09 03:51:32;;;;;;;94.75;26.08;;;1.70;1.00;;;;;;5071546;28;20296;-71
2020/12/09 03:53:59;;;;;;;101.75;26.95;;;1.60;1.00;;;;;;5072396;28;20240;-71
2020/12/09 03:56:25;;;;;;;99.25;26.83;;;1.60;1.00;;;;;;5072727;28;20209;-71
2020/12/09 03:58:51;;;;;;;96.70;25.77;;;1.60;1.90;;;;;;5072306;28;20221;-72
2020/12/09 04:01:18;;;;;;;98.80;26.70;;;1.60;1.00;;;;;;5071944;28;20229;-72
2020/12/09 04:03:45;;;;;;;96.80;25.65;;;1.50;2.20;;;;;;5071833;28;20286;-71
2020/12/09 04:06:12;;;;;;;101.45;27.05;;;1.50;2.70;;;;;;5071932;28;20205;-71
2020/12/09 04:08:38;;;;;;;97.30;27.02;;;1.50;2.50;;;;;;5071750;28;20207;-71
2020/12/09 04:11:05;;;;;;;99.90;27.55;;;1.40;3.10;;;;;;5072126;28;20595;-70
2020/12/09 04:13:31;;;;;;;102.32;28.27;;;1.40;2.80;;;;;;5071973;28;20261;-71
2020/12/09 04:15:57;;;;;;;103.25;28.65;;;1.40;3.80;;;;;;5071786;28;20295;-71
2020/12/09 04:18:24;;;;;;;99.38;27.52;;;1.40;4.00;;;;;;5072167;28;20205;-71
2020/12/09 04:20:51;;;;;;;103.55;29.33;;;1.30;4.20;;;;;;5071700;28;20260;-71
2020/12/09 04:23:18;;;;;;;101.25;30.58;;;1.30;6.30;;;;;;5070915;28;20235;-71
2020/12/09 04:25:44;;;;;;;107.43;29.08;;;1.30;7.30;;;;;;5072460;28;20208;-71
2020/12/09 04:28:11;;;;;;;101.93;29.85;;;1.30;8.40;;;;;;5071605;28;20212;-70
2020/12/09 04:30:37;;;;;;;101.63;28.42;;;1.20;8.20;;;;;;5071900;28;20197;-70
2020/12/09 04:33:03;;;;;;;106.72;29.33;;;1.20;9.50;;;;;;5071897;28;20224;-71
2020/12/09 04:35:30;;;;;;;101.78;27.80;;;1.20;11.50;;;;;;5071661;28;20315;-70
2020/12/09 04:37:56;;;;;;;98.55;25.92;;;1.20;13.60;;;;;;5071299;28;20205;-70
2020/12/09 04:40:26;;;;;;;101.93;27.80;;;1.20;15.00;;;;;;5071495;28;20794;-71
2020/12/09 04:42:57;;;;;;;111.25;28.65;;;1.20;16.70;;;;;;5071664;28;20209;-71
2020/12/09 04:45:24;;;;;;;103.55;27.35;;;1.20;16.80;;;;;;5071526;28;20342;-71
2020/12/09 04:48:06;;;;;;;97.75;26.98;;;1.20;18.30;;;;;;5071748;28;20304;-71
2020/12/09 04:50:36;;;;;;;96.20;27.30;;;1.30;19.90;;;;;;5071915;28;20655;-71
2020/12/09 04:53:09;;;;;;;105.22;29.13;;;1.30;21.20;;;;;;5071281;28;20201;-71
2020/12/09 04:55:49;;;;;;;102.18;27.27;;;1.30;22.70;;;;;;5071370;28;20237;-71
2020/12/09 04:58:16;;;;;;;89.88;22.08;;;1.30;24.20;;;;;;5071236;28;20300;-71
2020/12/09 05:00:44;;;;;;;96.05;27.15;;;1.30;26.10;;;;;;5071300;28;20304;-71
2020/12/09 05:03:16;;;;;;;107.78;30.30;;;1.30;26.90;;;;;;5071556;28;20300;-71
2020/12/09 05:05:43;;;;;;;101.38;28.40;;;1.30;27.50;;;;;;5070881;28;20307;-71
2020/12/09 05:08:19;;;;;;;101.45;28.02;;;1.20;28.90;;;;;;5071145;28;20299;-71
2020/12/09 05:10:51;;;;;;;96.53;27.55;;;1.30;31.10;;;;;;5071451;28;20196;-71
2020/12/09 05:13:24;;;;;;;107.45;29.65;;;1.20;30.70;;;;;;5071219;28;20270;-71
2020/12/09 05:15:55;;;;;;;99.43;27.92;;;1.30;33.50;;;;;;5071367;28;20861;-70
2020/12/09 05:18:35;;;;;;;102.90;28.25;;;1.30;36.20;;;;;;5070857;28;20685;-71
2020/12/09 05:21:14;;;;;;;98.40;27.75;;;1.30;38.80;;;;;;5070800;28;20228;-70
2020/12/09 05:23:44;;;;;;;110.78;29.13;;;1.30;41.60;;;;;;5070791;28;20324;-70
2020/12/09 05:26:17;;;;;;;110.70;28.25;;;1.30;43.90;;;;;;5070411;28;20244;-72
2020/12/09 05:28:43;;;;;;;107.53;28.98;;;1.30;48.80;;;;;;5070140;28;20667;-71
2020/12/09 05:31:21;;;;;;;109.35;29.70;;;1.30;50.90;;;;;;5071057;28;20208;-71
2020/12/09 05:33:48;;;;;;;99.88;27.27;;;1.30;55.20;;;;;;5070876;28;20655;-71
2020/12/09 05:36:15;;;;;;;110.22;28.92;;;1.40;58.40;;;;;;5072060;28;20295;-71
2020/12/09 05:38:41;;;;;;;93.93;23.13;;;1.40;60.40;;;;;;5074672;28;20215;-70
2020/12/09 05:41:12;;;;;;;106.25;28.63;;;1.40;62.60;;;;;;5075498;28;20262;-71
2020/12/09 05:43:43;;;;;;;106.63;25.83;;;1.40;62.70;;;;;;5075367;28;20611;-72
2020/12/09 05:46:09;;;;;;;107.13;25.85;;;1.30;63.90;;;;;;5074947;28;20209;-71
2020/12/09 05:48:36;;;;;;;109.25;30.38;;;1.30;64.70;;;;;;5074370;28;20216;-71
2020/12/09 05:51:03;;;;;;;112.50;31.23;;;1.30;65.20;;;;;;5074722;28;20201;-71
2020/12/09 05:53:31;;;;;;;114.05;30.33;;;1.40;65.60;;;;;;5075073;28;20809;-71
2020/12/09 05:56:12;;;;;;;107.75;31.08;;;1.40;65.80;;;;;;5075183;28;20209;-70
2020/12/09 05:58:40;;;;;;;111.93;28.92;;;1.40;66.30;;;;;;5074999;28;20292;-71
2020/12/09 06:01:09;;;;;;;112.35;29.45;;;1.40;67.90;;;;;;5075061;28;20598;-71
2020/12/09 06:03:37;;;;;;;107.03;27.73;;;1.50;68.00;;;;;;5075499;28;20209;-72
2020/12/09 06:06:11;;;;;;;115.53;30.58;;;1.50;68.50;;;;;;5074852;28;20201;-71
2020/12/09 06:08:39;;;;;;;109.10;27.15;;;1.50;69.90;;;;;;5075190;28;20291;-71
2020/12/09 06:11:05;;;;;;;109.40;25.52;;;1.50;69.90;;;;;;5075800;28;20242;-72
2020/12/09 06:13:33;;;;;;;108.57;27.73;;;1.50;69.00;;;;;;5079579;28;20240;-72
2020/12/09 06:16:00;;;;;;;105.45;26.00;;;1.50;69.80;;;;;;5077568;28;20208;-71
2020/12/09 06:18:30;;;;;;;100.20;26.23;;;1.50;70.30;;;;;;5076353;28;20687;-71
2020/12/09 06:20:57;;;;;;;108.97;27.20;;;1.50;70.30;;;;;;5075357;28;20695;-71
2020/12/09 06:23:26;;;;;;;103.88;26.20;;;1.50;70.80;;;;;;5075918;28;20205;-72
2020/12/09 06:25:52;;;;;;;104.10;26.90;;;1.60;71.10;;;;;;5075780;28;20239;-71
2020/12/09 06:28:20;;;;;;;99.78;26.25;;;1.60;71.40;;;;;;5075428;28;20363;-71
2020/12/09 06:30:49;;;;;;;103.63;28.70;;;1.60;72.00;;;;;;5076034;28;20292;-70
2020/12/09 06:33:29;;;;;;;107.03;28.25;;;1.60;72.10;;;;;;5076062;28;20254;-71
2020/12/09 06:36:22;;;;;;;110.88;28.02;;;1.60;72.50;;;;;;5075963;28;20262;-71
2020/12/09 06:39:17;;;;;;;101.85;26.23;;;1.60;72.20;;;;;;5076053;28;20186;-71
2020/12/09 06:42:06;;;;;;;110.18;28.73;;;1.60;72.30;;;;;;5076318;28;20289;-71
2020/12/09 06:44:33;;;;;;;106.65;28.65;;;1.60;72.40;;;;;;5075950;28;20229;-71
2020/12/09 06:47:01;;;;;;;104.20;29.08;;;1.70;72.70;;;;;;5075755;28;20303;-70
2020/12/09 06:49:39;;;;;;;105.65;28.15;;;1.70;73.10;;;;;;5076376;28;20288;-71
2020/12/09 06:52:29;;;;;;;105.43;27.17;;;1.70;73.50;;;;;;5076197;28;20571;-70
2020/12/09 06:54:55;;;;;;;117.75;32.55;;;1.70;73.10;;;;;;5074768;28;20237;-71
2020/12/09 06:57:25;;;;;;;131.32;32.67;;;1.70;73.60;;;;;;5074774;28;20296;-70
2020/12/09 07:00:11;;;;;;;128.70;30.83;;;1.80;73.80;;;;;;5074795;28;20229;-71
2020/12/09 07:02:41;;;;;;;122.60;30.40;;;1.80;73.90;;;;;;5075392;28;20291;-71
2020/12/09 07:05:11;;;;;;;129.65;30.35;;;1.80;74.50;;;;;;5075139;28;20225;-71
2020/12/09 07:07:40;;;;;;;103.28;27.83;;;1.80;74.90;;;;;;5075469;28;20304;-70
2020/12/09 07:10:12;;;;;;;119.07;31.60;;;1.80;74.70;;;;;;5075131;28;20240;-71
2020/12/09 07:12:39;;;;;;;131.43;34.10;;;1.80;76.40;;;;;;5075618;28;20291;-71
2020/12/09 07:15:06;;;;;;;129.18;32.25;;;1.80;75.20;;;;;;5075248;28;20274;-71
2020/12/09 07:17:33;;;;;;;114.75;27.00;;;1.80;75.30;;;;;;5075302;28;20733;-71
2020/12/09 07:20:00;;;;;;;119.60;28.38;;;1.80;75.20;;;;;;5074765;28;20300;-71
2020/12/09 07:22:27;;;;;;;112.95;28.33;;;1.80;75.50;;;;;;5075213;28;20197;-71
2020/12/09 07:24:55;;;;;;;114.70;31.25;;;1.80;75.90;;;;;;5075447;28;20225;-71
2020/12/09 07:27:25;;;;;;;125.85;32.42;;;1.80;75.70;;;;;;5075235;28;20676;-71
2020/12/09 07:29:54;;;;;;;117.68;29.63;;;1.80;75.60;;;;;;5075068;28;20213;-71
2020/12/09 07:32:22;;;;;;;121.82;30.88;;;1.80;76.20;;;;;;5075111;28;20228;-71
2020/12/09 07:34:54;;;;;;;117.00;29.17;;;1.80;76.30;;;;;;5074876;28;20229;-72
2020/12/09 07:37:23;;;;;;;114.25;28.35;;;1.90;76.90;;;;;;5074535;28;20213;-70
2020/12/09 07:39:51;;;;;;;126.57;28.15;;;1.90;76.90;;;;;;5074451;28;20296;-71
2020/12/09 07:42:20;;;;;;;109.72;27.58;;;2.00;77.80;;;;;;5074988;28;20252;-71
2020/12/09 07:44:47;;;;;;;119.15;24.95;;;2.00;79.40;;;;;;5075006;28;20224;-72
2020/12/09 07:47:20;;;;;;;121.85;27.58;;;2.00;78.50;;;;;;5073689;28;20211;-71
2020/12/09 07:49:51;;;;;;;127.47;28.70;;;2.10;78.70;;;;;;5073227;28;20597;-72
2020/12/09 07:52:26;;;;;;;131.00;30.90;;;2.10;78.80;;;;;;5073267;28;20198;-70
2020/12/09 07:56:00;;;;;;;111.88;26.95;;;2.20;79.50;;;;;;5136632;27;20561;-86
2020/12/09 07:58:26;;;;;;;115.72;26.15;;;2.20;79.40;;;;;;5091216;22;20233;-72
2020/12/09 08:00:53;;;;;;;112.35;27.50;;;2.20;80.60;;;;;;5068956;28;20292;-72
2020/12/09 08:03:20;;;;;;;120.68;27.73;;;2.20;80.00;;;;;;5068418;28;20205;-73
2020/12/09 08:05:47;;;;;;;137.27;29.25;;;2.20;79.20;;;;;;5068374;28;20711;-72
2020/12/09 08:08:14;;;;;;;115.05;28.08;;;2.30;79.50;;;;;;5067577;28;20311;-73
2020/12/09 08:10:44;;;;;;;119.82;27.38;;;2.30;79.80;;;;;;5068361;28;20213;-73
2020/12/09 08:13:13;;;;;;;113.43;26.10;;;2.30;79.40;;;;;;5068434;28;20205;-73
2020/12/09 08:15:40;;;;;;;122.07;27.77;;;2.30;79.80;;;;;;5068151;28;20232;-74
2020/12/09 08:18:07;;;;;;;111.53;28.80;;;2.30;79.90;;;;;;5068188;28;20233;-74
2020/12/09 08:20:46;;;;;;;117.13;27.25;;;2.40;80.50;;;;;;5068143;28;20647;-73
2020/12/09 08:23:12;;;;;;;105.80;26.42;;;2.40;80.70;;;;;;5068273;28;20295;-74
2020/12/09 08:25:46;;;;;;;122.35;25.75;;;2.40;80.90;;;;;;5068263;28;20548;-73
2020/12/09 08:28:14;;;;;;;130.90;27.98;;;2.40;81.20;;;;;;5068181;28;20225;-75
2020/12/09 08:30:40;;;;;;;120.70;28.02;;;2.40;80.70;;;;;;5068059;28;20213;-75
2020/12/09 08:33:20;;;;;;;127.28;28.80;;;2.50;80.90;;;;;;5068345;28;20216;-75
2020/12/09 08:35:50;;;;;;;113.65;25.15;;;2.50;81.40;;;;;;5069344;28;20211;-74
2020/12/09 08:38:25;;;;;;;117.75;25.52;;;2.50;81.30;;;;;;5071031;28;20252;-75
2020/12/09 08:40:52;;;;;;;132.05;28.10;;;2.50;81.00;;;;;;5067957;28;20205;-74
2020/12/09 08:43:23;;;;;;;129.85;28.90;;;2.50;81.10;;;;;;5067907;28;20201;-74
2020/12/09 08:45:49;;;;;;;120.40;26.95;;;2.50;80.60;;;;;;5067672;28;20212;-74
2020/12/09 08:48:18;;;;;;;117.85;24.75;;;2.60;81.30;;;;;;5067872;28;20256;-74
2020/12/09 08:50:45;;;;;;;118.32;27.20;;;2.60;81.40;;;;;;5067503;28;20680;-74
2020/12/09 08:53:11;;;;;;;111.88;26.75;;;2.60;80.90;;;;;;5068134;28;20237;-74
2020/12/09 08:55:38;;;;;;;137.95;30.00;;;2.60;80.70;;;;;;5067523;28;20221;-74
2020/12/09 08:58:04;;;;;;;130.35;29.00;;;2.70;80.90;;;;;;5067473;28;20323;-73
2020/12/09 09:00:33;;;;;;;119.22;26.02;;;2.70;80.30;;;;;;5067204;28;20586;-74
2020/12/09 09:03:00;;;;;;;108.72;26.75;;;2.70;80.40;;;;;;5067238;28;20205;-74
2020/12/09 09:05:26;;;;;;;125.72;30.10;;;2.70;79.70;;;;;;5064741;28;20672;-73
2020/12/09 09:07:52;;;;;;;116.53;28.02;;;2.70;80.00;;;;;;5054468;28;20225;-73
2020/12/09 09:10:18;;;;;;;147.93;33.22;;;2.80;79.80;;;;;;5053968;28;20704;-74
2020/12/09 09:12:45;;;;;;;129.38;30.42;;;2.70;79.50;;;;;;5053871;28;20209;-74
2020/12/09 09:15:11;;;;;;;120.60;27.15;;;2.80;79.50;;;;;;5053839;28;20233;-74
2020/12/09 09:17:38;;;;;;;127.63;30.23;;;2.80;79.00;;;;;;5053722;28;20708;-74
2020/12/09 09:20:05;;;;;;;119.80;27.02;;;2.90;79.20;;;;;;5053777;28;20209;-74
2020/12/09 09:22:32;;;;;;;133.55;31.75;;;2.90;79.20;;;;;;5053746;28;20206;-73
2020/12/09 09:24:58;;;;;;;161.25;37.08;;;3.00;78.80;;;;;;5053810;28;20288;-73
2020/12/09 09:27:25;;;;;;;164.80;35.78;;;3.00;77.40;;;;;;5053558;28;20299;-73
2020/12/09 09:29:51;;;;;;;152.73;32.72;;;3.00;76.00;;;;;;5053187;28;20206;-73
2020/12/09 09:32:17;;;;;;;130.77;31.73;;;3.00;74.30;;;;;;5053641;28;20209;-73
2020/12/09 09:34:45;;;;;;;156.07;33.90;;;3.10;74.60;;;;;;5053648;28;20228;-74
2020/12/09 09:37:11;;;;;;;145.15;31.13;;;3.10;73.40;;;;;;5053461;28;20263;-74
2020/12/09 09:39:38;;;;;;;133.10;31.05;;;3.20;73.20;;;;;;5053359;28;20365;-73
2020/12/09 09:42:05;;;;;;;155.38;35.65;;;3.10;72.10;;;;;;5053275;28;20206;-74
2020/12/09 09:44:32;;;;;;;157.00;35.35;;;3.20;71.20;;;;;;5053594;28;20205;-74
2020/12/09 09:46:58;;;;;;;189.93;36.80;;;3.20;70.00;;;;;;5053328;28;20237;-74
2020/12/09 09:49:25;;;;;;;134.70;30.58;;;3.20;69.90;;;;;;5053273;28;20247;-74
2020/12/09 09:51:53;;;;;;;169.55;35.50;;;3.20;69.50;;;;;;5053264;28;20301;-73
2020/12/09 09:54:19;;;;;;;256.35;38.63;;;3.20;69.20;;;;;;5053130;28;20312;-74
2020/12/09 09:56:46;;;;;;;226.25;42.03;;;3.20;69.00;;;;;;5053214;28;20296;-74
2020/12/09 09:59:12;;;;;;;163.45;34.95;;;3.20;68.60;;;;;;5052728;28;20237;-73
2020/12/09 10:01:39;;;;;;;124.13;31.85;;;3.20;67.70;;;;;;5053188;28;20206;-74
2020/12/09 10:04:08;;;;;;;133.48;33.75;;;3.20;67.10;;;;;;5053098;28;20241;-74
2020/12/09 10:06:34;;;;;;;126.90;31.63;;;3.20;67.30;;;;;;5053192;28;20570;-73
2020/12/09 10:09:03;;;;;;;143.75;36.30;;;3.20;67.30;;;;;;5052477;28;20230;-75
2020/12/09 10:11:30;;;;;;;142.90;32.78;;;3.20;66.40;;;;;;5053008;28;20231;-74
2020/12/09 10:13:57;;;;;;;163.65;35.50;;;3.20;66.20;;;;;;5052836;28;20630;-74
2020/12/09 10:16:24;;;;;;;128.35;30.42;;;3.30;66.40;;;;;;5053072;28;20209;-73
2020/12/09 10:18:51;;;;;;;161.35;35.42;;;3.30;65.30;;;;;;5051122;28;20272;-73
2020/12/09 10:21:24;;;;;;;138.07;33.28;;;3.30;65.90;;;;;;5052656;28;20241;-74
2020/12/09 10:23:51;;;;;;;130.48;32.50;;;3.30;65.40;;;;;;5052656;28;20594;-73
2020/12/09 10:26:19;;;;;;;144.25;35.92;;;3.30;65.10;;;;;;5052705;28;20517;-74
2020/12/09 10:28:46;;;;;;;152.55;40.85;;;3.30;64.90;;;;;;5052453;28;20283;-74
2020/12/09 10:31:12;;;;;;;137.32;40.03;;;3.20;62.80;;;;;;5052391;28;20313;-74
2020/12/09 10:33:39;;;;;;;148.00;39.90;;;3.20;59.80;;;;;;5059479;28;20205;-74
2020/12/09 10:36:05;;;;;;;137.43;36.13;;;3.20;56.20;;;;;;5073781;28;20239;-74
2020/12/09 10:38:32;;;;;;;133.88;37.65;;;3.10;52.10;;;;;;5073746;28;20315;-74
2020/12/09 10:40:58;;;;;;;124.85;35.20;;;3.20;49.80;;;;;;5071110;28;20205;-73
2020/12/09 10:43:26;;;;;;;108.85;28.90;;;3.20;49.70;;;;;;5072427;28;20304;-74
2020/12/09 10:45:52;;;;;;;133.95;35.80;;;3.20;49.20;;;;;;5072351;28;20664;-74
2020/12/09 10:48:19;;;;;;;144.68;37.17;;;3.20;48.80;;;;;;5072250;28;20654;-73
2020/12/09 10:50:45;;;;;;;147.00;39.88;;;3.20;48.00;;;;;;5071863;28;20215;-73
2020/12/09 10:53:12;;;;;;;143.98;38.90;;;3.20;47.30;;;;;;5072428;28;20201;-73
2020/12/09 10:55:38;;;;;;;133.52;35.85;;;3.20;47.30;;;;;;5072137;28;20229;-73
2020/12/09 10:58:05;;;;;;;141.60;39.58;;;3.30;45.80;;;;;;5071722;28;20241;-73
2020/12/09 11:00:32;;;;;;;156.20;39.03;;;3.20;43.00;;;;;;5072410;28;20266;-73
2020/12/09 11:02:58;;;;;;;132.15;37.60;;;3.20;36.50;;;;;;5072017;28;20231;-73
2020/12/09 11:05:25;;;;;;;133.30;36.50;;;3.20;32.80;;;;;;5072244;28;20212;-73
2020/12/09 11:07:51;;;;;;;137.43;35.90;;;3.20;30.10;;;;;;5071945;28;20312;-73
2020/12/09 11:10:17;;;;;;;117.90;30.35;;;3.10;28.10;;;;;;5072378;28;20212;-73
2020/12/09 11:12:44;;;;;;;146.43;39.10;;;3.10;28.80;;;;;;5072442;28;20209;-73
2020/12/09 11:15:10;;;;;;;127.15;37.58;;;3.20;28.60;;;;;;5072286;28;20313;-73
2020/12/09 11:17:38;;;;;;;120.07;33.85;;;3.20;26.80;;;;;;5072663;28;20225;-73
2020/12/09 11:20:04;;;;;;;132.82;36.80;;;3.10;25.60;;;;;;5085637;28;20273;-74
2020/12/09 11:22:31;;;;;;;135.75;34.80;;;3.10;25.90;;;;;;5095294;28;20205;-74
2020/12/09 11:24:57;;;;;;;132.38;34.40;;;3.20;27.60;;;;;;5094967;28;20609;-74
2020/12/09 11:27:23;;;;;;;141.38;35.53;;;3.10;28.80;;;;;;5094569;28;20225;-74
2020/12/09 11:29:51;;;;;;;127.95;33.28;;;3.20;32.50;;;;;;5094390;28;20205;-74
2020/12/09 11:32:17;;;;;;;142.60;36.88;;;3.20;32.10;;;;;;5094792;28;20200;-75
2020/12/09 11:34:44;;;;;;;123.78;32.28;;;3.20;32.90;;;;;;5094692;28;20250;-74
2020/12/09 11:37:10;;;;;;;117.97;30.65;;;3.20;35.10;;;;;;5094153;28;20220;-73
2020/12/09 11:39:37;;;;;;;137.20;35.40;;;3.20;37.00;;;;;;5094044;28;20205;-74
2020/12/09 11:42:04;;;;;;;134.35;34.95;;;3.20;36.10;;;;;;5093810;28;20204;-74
2020/12/09 11:44:30;;;;;;;133.43;34.85;;;3.20;36.60;;;;;;5072857;28;20196;-74
2020/12/09 11:46:56;;;;;;;126.28;34.42;;;3.20;36.90;;;;;;5071133;28;20236;-73
2020/12/09 11:49:23;;;;;;;122.80;26.65;;;3.30;38.10;;;;;;5071525;28;20205;-74
2020/12/09 11:51:50;;;;;;;121.20;31.20;;;3.20;40.00;;;;;;5071467;28;20223;-74
2020/12/09 11:54:17;;;;;;;124.82;30.83;;;3.30;40.90;;;;;;5071298;28;20205;-74
2020/12/09 11:56:44;;;;;;;118.70;30.77;;;3.30;42.40;;;;;;5071220;28;20780;-73
2020/12/09 11:59:11;;;;;;;115.20;31.55;;;3.30;42.30;;;;;;5070857;28;20235;-74
2020/12/09 12:01:37;;;;;;;122.70;30.73;;;3.30;42.70;;;;;;5071108;28;20762;-73
2020/12/09 12:04:03;;;;;;;129.80;35.80;;;3.30;43.40;;;;;;5070999;28;20209;-74
2020/12/09 12:06:30;;;;;;;125.43;33.95;;;3.30;42.60;;;;;;5071199;28;20208;-74
2020/12/09 12:08:58;;;;;;;116.88;30.67;;;3.30;42.30;;;;;;5071117;28;20221;-75
2020/12/09 12:11:26;;;;;;;128.13;33.33;;;3.30;42.40;;;;;;5071180;28;20664;-74
2020/12/09 12:13:53;;;;;;;110.15;32.47;;;3.30;43.80;;;;;;5070965;28;20227;-74
2020/12/09 12:16:21;;;;;;;138.18;34.42;;;3.30;43.60;;;;;;5070993;28;20231;-74
2020/12/09 12:18:48;;;;;;;125.22;41.10;;;3.30;43.00;;;;;;5070587;28;20236;-74
2020/12/09 12:21:16;;;;;;;135.40;41.55;;;3.30;43.30;;;;;;5071326;28;20262;-74
2020/12/09 12:23:42;;;;;;;173.45;41.17;;;3.30;43.40;;;;;;5070903;28;20204;-74
2020/12/09 12:26:09;;;;;;;135.85;36.10;;;3.30;42.10;;;;;;5070939;28;20232;-74
2020/12/09 12:28:36;;;;;;;113.40;30.23;;;3.30;41.50;;;;;;5070700;28;20221;-74
2020/12/09 12:31:02;;;;;;;130.05;34.10;;;3.30;41.40;;;;;;5070735;28;20616;-74
2020/12/09 12:33:28;;;;;;;118.63;32.78;;;3.30;41.90;;;;;;5071174;28;20616;-74
2020/12/09 12:35:55;;;;;;;129.52;32.42;;;3.30;41.90;;;;;;5071101;28;20327;-73
2020/12/09 12:38:21;;;;;;;123.60;33.15;;;3.30;44.30;;;;;;5072955;28;20687;-74
2020/12/09 12:40:47;;;;;;;145.82;39.15;;;3.30;43.30;;;;;;5071772;28;20205;-73